createdAt,value
2016-09-30T00:00:02.304Z,93.51
2016-09-30T00:01:02.298Z,93.41
2016-09-30T00:02:01.924Z,93.41
2016-09-30T00:03:02.190Z,93.12
2016-09-30T00:04:02.157Z,93.12
2016-09-30T00:05:02.123Z,93.32
2016-09-30T00:06:02.087Z,93.12
2016-09-30T00:07:02.052Z,93.03
2016-09-30T00:08:02.026Z,93.03
2016-09-30T00:09:01.983Z,92.84
2016-09-30T00:10:01.945Z,93.22
2016-09-30T00:11:01.909Z,93.6
2016-09-30T00:12:01.877Z,93.41
2016-09-30T00:13:01.534Z,93.7
2016-09-30T00:14:01.818Z,93.7
2016-09-30T00:15:01.767Z,93.22
2016-09-30T00:16:01.733Z,93.79
2016-09-30T00:17:01.696Z,93.98
2016-09-30T00:18:01.667Z,93.51
2016-09-30T00:19:01.627Z,93.7
2016-09-30T00:20:01.591Z,93.79
2016-09-30T00:21:01.556Z,93.98
2016-09-30T00:22:01.221Z,93.98
2016-09-30T00:23:01.489Z,94.08
2016-09-30T00:24:01.450Z,94.08
2016-09-30T00:25:01.413Z,94.27
2016-09-30T00:26:01.077Z,94.08
2016-09-30T00:27:01.347Z,93.84
2016-09-30T00:28:01.309Z,94.08
2016-09-30T00:29:01.272Z,93.84
2016-09-30T00:30:01.238Z,93.74
2016-09-30T00:31:01.199Z,93.93
2016-09-30T00:32:01.180Z,94.13
2016-09-30T00:33:01.131Z,93.93
2016-09-30T00:34:01.095Z,94.51
2016-09-30T00:35:00.757Z,94.6
2016-09-30T00:36:01.027Z,94.22
2016-09-30T00:37:00.996Z,94.32
2016-09-30T00:38:00.963Z,93.74
2016-09-30T00:39:00.619Z,94.32
2016-09-30T00:40:00.882Z,94.32
2016-09-30T00:41:00.548Z,94.32
2016-09-30T00:42:00.811Z,94.03
2016-09-30T00:43:00.777Z,94.03
2016-09-30T00:44:00.438Z,94.03
2016-09-30T00:45:00.713Z,94.03
2016-09-30T00:46:00.671Z,94.6
2016-09-30T00:47:00.633Z,94.79
2016-09-30T00:48:00.602Z,94.79
2016-09-30T00:49:00.568Z,94.7
2016-09-30T00:50:00.529Z,94.41
2016-09-30T00:51:00.494Z,94.41
2016-09-30T00:52:00.458Z,94.41
2016-09-30T00:53:00.420Z,94.79
2016-09-30T00:54:00.384Z,94.7
2016-09-30T00:55:00.351Z,94.79
2016-09-30T00:56:00.315Z,94.79
2016-09-30T00:57:00.285Z,94.7
2016-09-30T00:58:00.247Z,94.51
2016-09-30T00:59:00.214Z,94.7
2016-09-30T01:00:00.173Z,94.32
2016-09-30T01:00:59.864Z,94.03
2016-09-30T01:02:00.099Z,94.6
2016-09-30T01:03:00.066Z,94.41
2016-09-30T01:04:00.029Z,94.51
2016-09-30T01:04:59.692Z,94.7
2016-09-30T01:05:59.657Z,94.6
2016-09-30T01:06:59.924Z,93.93
2016-09-30T01:07:59.886Z,94.32
2016-09-30T01:08:59.873Z,93.84
2016-09-30T01:09:59.824Z,94.6
2016-09-30T01:10:59.478Z,93.93
2016-09-30T01:11:59.741Z,94.32
2016-09-30T01:12:59.710Z,94.22
2016-09-30T01:13:59.370Z,94.41
2016-09-30T01:14:59.636Z,94.13
2016-09-30T01:15:59.602Z,94.41
2016-09-30T01:16:59.260Z,94.13
2016-09-30T01:17:59.230Z,94.22
2016-09-30T01:18:59.491Z,94.41
2016-09-30T01:19:59.464Z,93.84
2016-09-30T01:20:59.130Z,93.93
2016-09-30T01:21:59.386Z,93.93
2016-09-30T01:22:59.352Z,93.93
2016-09-30T01:23:59.315Z,93.93
2016-09-30T01:24:59.279Z,93.93
2016-09-30T01:25:58.941Z,94.13
2016-09-30T01:26:59.207Z,94.03
2016-09-30T01:27:59.172Z,94.13
2016-09-30T01:28:59.137Z,94.03
2016-09-30T01:29:59.112Z,94.22
2016-09-30T01:30:59.062Z,94.03
2016-09-30T01:31:58.722Z,94.41
2016-09-30T01:32:58.993Z,94.41
2016-09-30T01:33:58.955Z,94.6
2016-09-30T01:34:58.920Z,94.51
2016-09-30T01:35:58.884Z,94.6
2016-09-30T01:36:58.546Z,94.51
2016-09-30T01:37:58.815Z,94.79
2016-09-30T01:38:58.774Z,94.03
2016-09-30T01:39:58.742Z,94.13
2016-09-30T01:40:58.402Z,93.74
2016-09-30T01:41:58.671Z,94.22
2016-09-30T01:42:58.632Z,94.13
2016-09-30T01:43:58.597Z,93.65
2016-09-30T01:44:58.562Z,93.93
2016-09-30T01:45:58.527Z,93.93
2016-09-30T01:46:58.492Z,93.93
2016-09-30T01:47:58.455Z,94.13
2016-09-30T01:48:58.419Z,93.84
2016-09-30T01:49:58.383Z,93.74
2016-09-30T01:50:58.351Z,93.55
2016-09-30T01:51:58.319Z,93.55
2016-09-30T01:52:58.285Z,93.74
2016-09-30T01:53:58.239Z,93.27
2016-09-30T01:54:57.907Z,93.55
2016-09-30T01:55:58.171Z,93.37
2016-09-30T01:56:58.138Z,93.17
2016-09-30T01:57:58.100Z,93.46
2016-09-30T01:58:57.759Z,93.46
2016-09-30T01:59:58.032Z,93.65
2016-09-30T02:00:58.001Z,93.37
2016-09-30T02:01:57.957Z,93.08
2016-09-30T02:02:57.620Z,93.55
2016-09-30T02:03:57.882Z,93.27
2016-09-30T02:04:57.850Z,93.17
2016-09-30T02:05:57.513Z,93.46
2016-09-30T02:06:57.776Z,93.84
2016-09-30T02:07:57.741Z,93.65
2016-09-30T02:08:57.704Z,93.65
2016-09-30T02:09:57.670Z,93.46
2016-09-30T02:10:57.634Z,94.22
2016-09-30T02:11:57.599Z,93.79
2016-09-30T02:12:57.262Z,93.46
2016-09-30T02:13:57.524Z,94.08
2016-09-30T02:14:57.490Z,94.13
2016-09-30T02:15:57.455Z,94.27
2016-09-30T02:16:57.420Z,94.08
2016-09-30T02:17:57.385Z,94.03
2016-09-30T02:18:57.348Z,93.98
2016-09-30T02:19:57.309Z,94.03
2016-09-30T02:20:57.277Z,93.98
2016-09-30T02:21:57.237Z,93.89
2016-09-30T02:22:57.201Z,93.7
2016-09-30T02:23:57.168Z,93.89
2016-09-30T02:24:56.830Z,93.89
2016-09-30T02:25:57.093Z,93.7
2016-09-30T02:26:56.759Z,93.89
2016-09-30T02:27:57.021Z,93.7
2016-09-30T02:28:56.691Z,94.37
2016-09-30T02:29:56.950Z,93.89
2016-09-30T02:30:56.613Z,94.08
2016-09-30T02:31:56.878Z,94.08
2016-09-30T02:32:56.842Z,94.17
2016-09-30T02:33:56.808Z,94.17
2016-09-30T02:34:56.773Z,93.98
2016-09-30T02:35:56.431Z,93.98
2016-09-30T02:36:56.396Z,94.74
2016-09-30T02:37:56.663Z,93.98
2016-09-30T02:38:56.629Z,94.65
2016-09-30T02:39:56.595Z,94.65
2016-09-30T02:40:56.553Z,94.65
2016-09-30T02:41:56.522Z,94.56
2016-09-30T02:42:56.490Z,94.74
2016-09-30T02:43:56.145Z,94.56
2016-09-30T02:44:56.411Z,94.37
2016-09-30T02:45:56.374Z,94.46
2016-09-30T02:46:56.340Z,94.74
2016-09-30T02:47:56.306Z,94.27
2016-09-30T02:48:56.273Z,94.46
2016-09-30T02:49:55.932Z,94.37
2016-09-30T02:50:55.892Z,94.46
2016-09-30T02:51:56.159Z,94.37
2016-09-30T02:52:56.124Z,94.46
2016-09-30T02:53:56.088Z,94.74
2016-09-30T02:54:56.051Z,94.46
2016-09-30T02:55:56.014Z,94.46
2016-09-30T02:56:55.994Z,94.74
2016-09-30T02:57:55.943Z,94.65
2016-09-30T02:58:55.910Z,94.84
2016-09-30T02:59:55.873Z,95.12
2016-09-30T03:00:55.836Z,95.22
2016-09-30T03:01:55.800Z,95.32
2016-09-30T03:02:55.763Z,95.22
2016-09-30T03:03:55.727Z,95.41
2016-09-30T03:04:55.693Z,94.65
2016-09-30T03:05:55.656Z,94.84
2016-09-30T03:06:55.318Z,95.22
2016-09-30T03:07:55.585Z,95.03
2016-09-30T03:08:55.548Z,94.74
2016-09-30T03:09:55.515Z,94.74
2016-09-30T03:10:55.479Z,95.32
2016-09-30T03:11:55.444Z,95.12
2016-09-30T03:12:55.403Z,94.93
2016-09-30T03:13:55.367Z,94.93
2016-09-30T03:14:55.331Z,94.93
2016-09-30T03:15:55.296Z,94.56
2016-09-30T03:16:55.259Z,95.12
2016-09-30T03:17:55.223Z,95.12
2016-09-30T03:18:55.184Z,95.12
2016-09-30T03:19:55.152Z,94.93
2016-09-30T03:20:55.117Z,94.93
2016-09-30T03:21:55.079Z,94.93
2016-09-30T03:22:55.044Z,95.12
2016-09-30T03:23:55.004Z,94.98
2016-09-30T03:24:54.970Z,95.17
2016-09-30T03:25:54.946Z,95.17
2016-09-30T03:26:54.899Z,95.32
2016-09-30T03:27:54.863Z,95.12
2016-09-30T03:28:54.828Z,94.65
2016-09-30T03:29:54.487Z,94.93
2016-09-30T03:30:54.451Z,94.93
2016-09-30T03:31:54.721Z,94.74
2016-09-30T03:32:54.381Z,94.84
2016-09-30T03:33:54.653Z,94.74
2016-09-30T03:34:54.320Z,94.37
2016-09-30T03:35:54.574Z,95.12
2016-09-30T03:36:54.238Z,94.84
2016-09-30T03:37:54.502Z,94.93
2016-09-30T03:38:54.467Z,94.93
2016-09-30T03:39:54.435Z,94.46
2016-09-30T03:40:54.393Z,95.12
2016-09-30T03:41:54.358Z,94.46
2016-09-30T03:42:54.323Z,94.65
2016-09-30T03:43:54.284Z,94.84
2016-09-30T03:44:54.249Z,94.93
2016-09-30T03:45:53.910Z,94.56
2016-09-30T03:46:54.192Z,94.84
2016-09-30T03:47:54.144Z,94.84
2016-09-30T03:48:54.108Z,94.17
2016-09-30T03:49:54.068Z,94.93
2016-09-30T03:50:54.033Z,94.37
2016-09-30T03:51:53.994Z,94.27
2016-09-30T03:52:53.961Z,94.37
2016-09-30T03:53:53.922Z,94.46
2016-09-30T03:54:53.888Z,94.46
2016-09-30T03:55:53.551Z,94.46
2016-09-30T03:56:53.817Z,94.46
2016-09-30T03:57:53.779Z,94.46
2016-09-30T03:58:53.746Z,94.37
2016-09-30T03:59:53.404Z,94.56
2016-09-30T04:00:53.682Z,94.46
2016-09-30T04:01:53.636Z,94.65
2016-09-30T04:02:53.297Z,94.74
2016-09-30T04:03:53.566Z,94.93
2016-09-30T04:04:53.531Z,94.93
2016-09-30T04:05:53.193Z,94.93
2016-09-30T04:06:53.456Z,95.32
2016-09-30T04:07:53.419Z,94.46
2016-09-30T04:08:53.383Z,94.46
2016-09-30T04:09:53.348Z,95.12
2016-09-30T04:10:53.007Z,94.93
2016-09-30T04:11:53.273Z,94.74
2016-09-30T04:12:53.243Z,94.84
2016-09-30T04:13:53.200Z,95.12
2016-09-30T04:14:52.863Z,95.22
2016-09-30T04:15:53.129Z,95.17
2016-09-30T04:16:53.091Z,95.03
2016-09-30T04:17:53.057Z,95.32
2016-09-30T04:18:52.720Z,95.7
2016-09-30T04:19:52.987Z,95.51
2016-09-30T04:20:52.952Z,96.27
2016-09-30T04:21:52.914Z,96.17
2016-09-30T04:22:52.878Z,95.89
2016-09-30T04:23:52.842Z,95.89
2016-09-30T04:24:52.801Z,95.32
2016-09-30T04:25:52.770Z,95.7
2016-09-30T04:26:52.731Z,95.41
2016-09-30T04:27:52.392Z,95.51
2016-09-30T04:28:52.662Z,95.22
2016-09-30T04:29:52.320Z,95.22
2016-09-30T04:30:52.587Z,95.12
2016-09-30T04:31:52.552Z,95.32
2016-09-30T04:32:52.518Z,94.93
2016-09-30T04:33:52.176Z,95.03
2016-09-30T04:34:52.443Z,94.93
2016-09-30T04:35:52.104Z,95.22
2016-09-30T04:36:52.067Z,95.12
2016-09-30T04:37:52.032Z,94.84
2016-09-30T04:38:52.300Z,94.93
2016-09-30T04:39:52.258Z,94.74
2016-09-30T04:40:51.923Z,94.84
2016-09-30T04:41:52.192Z,94.27
2016-09-30T04:42:52.154Z,94.37
2016-09-30T04:43:51.815Z,94.46
2016-09-30T04:44:52.082Z,94.46
2016-09-30T04:45:51.742Z,94.46
2016-09-30T04:46:52.010Z,94.56
2016-09-30T04:47:51.975Z,94.6
2016-09-30T04:48:51.936Z,94.46
2016-09-30T04:49:51.904Z,94.7
2016-09-30T04:50:51.863Z,94.7
2016-09-30T04:51:51.825Z,94.6
2016-09-30T04:52:51.793Z,94.46
2016-09-30T04:53:51.753Z,94.6
2016-09-30T04:54:51.717Z,94.6
2016-09-30T04:55:51.683Z,94.32
2016-09-30T04:56:51.644Z,94.79
2016-09-30T04:57:51.610Z,94.7
2016-09-30T04:58:51.271Z,94.89
2016-09-30T04:59:51.235Z,94.51
2016-09-30T05:00:51.500Z,95.08
2016-09-30T05:01:51.462Z,95.08
2016-09-30T05:02:51.129Z,94.98
2016-09-30T05:03:51.091Z,95.27
2016-09-30T05:04:51.053Z,95.08
2016-09-30T05:05:51.320Z,94.98
2016-09-30T05:06:51.282Z,95.08
2016-09-30T05:07:50.956Z,95.08
2016-09-30T05:08:51.210Z,94.98
2016-09-30T05:09:51.172Z,94.98
2016-09-30T05:10:51.137Z,94.7
2016-09-30T05:11:51.103Z,94.98
2016-09-30T05:12:50.763Z,94.89
2016-09-30T05:13:51.031Z,95.08
2016-09-30T05:14:50.992Z,94.89
2016-09-30T05:15:50.957Z,94.89
2016-09-30T05:16:50.920Z,95.08
2016-09-30T05:17:50.886Z,94.79
2016-09-30T05:18:50.848Z,94.98
2016-09-30T05:19:50.509Z,94.7
2016-09-30T05:20:50.775Z,95.17
2016-09-30T05:21:50.739Z,95.08
2016-09-30T05:22:50.704Z,95.08
2016-09-30T05:23:50.369Z,95.36
2016-09-30T05:24:50.627Z,95.08
2016-09-30T05:25:50.598Z,95.27
2016-09-30T05:26:50.253Z,94.51
2016-09-30T05:27:50.523Z,94.79
2016-09-30T05:28:50.485Z,95.08
2016-09-30T05:29:50.144Z,95.08
2016-09-30T05:30:50.419Z,94.89
2016-09-30T05:31:50.381Z,94.89
2016-09-30T05:32:50.335Z,94.79
2016-09-30T05:33:50.302Z,94.89
2016-09-30T05:34:49.969Z,94.89
2016-09-30T05:35:50.229Z,94.89
2016-09-30T05:36:50.197Z,95.08
2016-09-30T05:37:50.156Z,94.98
2016-09-30T05:38:50.124Z,94.89
2016-09-30T05:39:50.084Z,94.89
2016-09-30T05:40:50.043Z,95.03
2016-09-30T05:41:50.010Z,95.22
2016-09-30T05:42:49.974Z,95.12
2016-09-30T05:43:49.935Z,94.56
2016-09-30T05:44:49.903Z,95.17
2016-09-30T05:45:49.865Z,94.79
2016-09-30T05:46:49.828Z,93.74
2016-09-30T05:47:49.794Z,93.12
2016-09-30T05:48:49.758Z,92.65
2016-09-30T05:49:49.729Z,91.55
2016-09-30T05:50:49.690Z,90.59
2016-09-30T05:51:49.652Z,89.4
2016-09-30T05:52:49.620Z,87.35
2016-09-30T05:53:49.580Z,86.15
2016-09-30T05:54:49.545Z,84.43
2016-09-30T05:55:49.513Z,82.28
2016-09-30T05:56:49.477Z,80.88
2016-09-30T05:57:49.443Z,79.2
2016-09-30T05:58:49.407Z,77.42
2016-09-30T05:59:49.072Z,75.73
2016-09-30T06:00:49.339Z,74.24
2016-09-30T06:01:49.309Z,73.19
2016-09-30T06:02:49.272Z,71.69
2016-09-30T06:03:49.240Z,70.57
2016-09-30T06:04:49.207Z,68.85
2016-09-30T06:05:48.874Z,67.16
2016-09-30T06:06:48.841Z,65.65
2016-09-30T06:07:49.108Z,64.59
2016-09-30T06:08:49.076Z,63.54
2016-09-30T06:09:49.042Z,64.05
2016-09-30T06:10:49.009Z,62.9
2016-09-30T06:11:48.980Z,62.42
2016-09-30T06:12:48.947Z,62.32
2016-09-30T06:13:48.913Z,61.33
2016-09-30T06:14:48.885Z,61.24
2016-09-30T06:15:48.547Z,60.31
2016-09-30T06:16:48.519Z,59.92
2016-09-30T06:17:48.791Z,59.25
2016-09-30T06:18:48.456Z,58.22
2016-09-30T06:19:48.731Z,56.91
2016-09-30T06:20:48.697Z,55.4
2016-09-30T06:21:48.362Z,54.72
2016-09-30T06:22:48.636Z,53.88
2016-09-30T06:23:48.302Z,53.05
2016-09-30T06:24:48.577Z,52.4
2016-09-30T06:25:48.543Z,51.82
2016-09-30T06:26:48.514Z,51.56
2016-09-30T06:27:48.183Z,50.69
2016-09-30T06:28:48.460Z,50.98
2016-09-30T06:29:48.428Z,51.07
2016-09-30T06:30:48.401Z,51.75
2016-09-30T06:31:48.063Z,52.11
2016-09-30T06:32:48.336Z,52.97
2016-09-30T06:33:48.305Z,53.14
2016-09-30T06:34:48.285Z,52.95
2016-09-30T06:35:47.946Z,52.47
2016-09-30T06:36:47.916Z,51.92
2016-09-30T06:37:48.197Z,50.76
2016-09-30T06:38:48.164Z,50.01
2016-09-30T06:39:48.144Z,49.07
2016-09-30T06:40:48.115Z,47.94
2016-09-30T06:41:48.088Z,46.13
2016-09-30T06:42:48.057Z,44.73
2016-09-30T06:43:48.031Z,43.4
2016-09-30T06:44:48.004Z,42.35
2016-09-30T06:45:47.673Z,41.11
2016-09-30T06:46:47.953Z,40.28
2016-09-30T06:47:47.621Z,38.76
2016-09-30T06:48:47.900Z,38.09
2016-09-30T06:49:47.870Z,37.73
2016-09-30T06:50:47.845Z,36.66
2016-09-30T06:51:47.821Z,36.3
2016-09-30T06:52:47.802Z,35.24
2016-09-30T06:53:47.771Z,33.61
2016-09-30T06:54:47.743Z,33.23
2016-09-30T06:55:47.416Z,32.57
2016-09-30T06:56:47.391Z,31.22
2016-09-30T06:57:47.671Z,30.18
2016-09-30T06:58:47.340Z,29.6
2016-09-30T06:59:47.622Z,29.61
2016-09-30T07:00:47.294Z,29.03
2016-09-30T07:01:47.300Z,28.85
2016-09-30T07:02:47.550Z,28.09
2016-09-30T07:03:47.522Z,27.7
2016-09-30T07:04:47.498Z,27.33
2016-09-30T07:05:47.476Z,27.15
2016-09-30T07:06:47.448Z,26.46
2016-09-30T07:07:47.427Z,26.38
2016-09-30T07:08:47.403Z,26.09
2016-09-30T07:09:47.380Z,25.89
2016-09-30T07:10:47.356Z,24.82
2016-09-30T07:11:47.030Z,24.36
2016-09-30T07:12:47.308Z,24.16
2016-09-30T07:13:47.286Z,23.49
2016-09-30T07:14:46.961Z,23.11
2016-09-30T07:15:47.241Z,22.05
2016-09-30T07:16:47.217Z,21.66
2016-09-30T07:17:47.197Z,21.76
2016-09-30T07:18:47.176Z,21.77
2016-09-30T07:19:47.151Z,22.36
2016-09-30T07:20:47.127Z,21.97
2016-09-30T07:21:47.105Z,21.77
2016-09-30T07:22:47.099Z,22.08
2016-09-30T07:23:46.758Z,21.98
2016-09-30T07:24:47.037Z,21.69
2016-09-30T07:25:47.015Z,20.61
2016-09-30T07:26:46.999Z,20.03
2016-09-30T07:27:46.976Z,19.64
2016-09-30T07:28:46.953Z,20.03
2016-09-30T07:29:46.627Z,19.54
2016-09-30T07:30:46.908Z,19.16
2016-09-30T07:31:47.153Z,19.37
2016-09-30T07:32:46.869Z,18.88
2016-09-30T07:33:46.851Z,18.39
2016-09-30T07:34:46.521Z,18.1
2016-09-30T07:35:46.801Z,18.19
2016-09-30T07:36:46.779Z,18.29
2016-09-30T07:37:46.777Z,17.8
2016-09-30T07:38:46.839Z,17.41
2016-09-30T07:39:46.719Z,17.71
2016-09-30T07:40:46.392Z,16.83
2016-09-30T07:41:46.675Z,16.74
2016-09-30T07:42:46.655Z,16.14
2016-09-30T07:43:46.634Z,16.74
2016-09-30T07:44:46.612Z,16.16
2016-09-30T07:45:46.598Z,15.57
2016-09-30T07:46:46.573Z,15.88
2016-09-30T07:47:46.551Z,15.48
2016-09-30T07:48:46.530Z,14.21
2016-09-30T07:49:46.514Z,14.11
2016-09-30T07:50:46.186Z,14.21
2016-09-30T07:51:46.469Z,13.82
2016-09-30T07:52:46.450Z,13.72
2016-09-30T07:53:46.424Z,13.23
2016-09-30T07:54:46.407Z,13.23
2016-09-30T07:55:46.385Z,13.02
2016-09-30T07:56:46.366Z,13.42
2016-09-30T07:57:46.043Z,13.81
2016-09-30T07:58:46.322Z,13.91
2016-09-30T07:59:46.307Z,13.81
2016-09-30T08:00:46.286Z,13.62
2016-09-30T08:01:46.267Z,12.93
2016-09-30T08:02:46.248Z,12.84
2016-09-30T08:03:46.224Z,12.45
2016-09-30T08:04:46.201Z,12.15
2016-09-30T08:05:45.882Z,13.52
2016-09-30T08:06:46.173Z,13.8
2016-09-30T08:07:46.141Z,13.79
2016-09-30T08:08:46.122Z,13.79
2016-09-30T08:09:46.103Z,13.31
2016-09-30T08:10:45.785Z,13.12
2016-09-30T08:11:46.063Z,12.83
2016-09-30T08:12:45.741Z,12.15
2016-09-30T08:13:46.024Z,11.76
2016-09-30T08:14:46.005Z,11.76
2016-09-30T08:15:45.985Z,11.77
2016-09-30T08:16:45.665Z,11.18
2016-09-30T08:17:45.644Z,10.89
2016-09-30T08:18:45.924Z,10.89
2016-09-30T08:19:45.904Z,10.4
2016-09-30T08:20:45.886Z,10.7
2016-09-30T08:21:45.869Z,10.31
2016-09-30T08:22:45.849Z,10.02
2016-09-30T08:23:45.831Z,9.42
2016-09-30T08:24:45.810Z,9.82
2016-09-30T08:25:45.795Z,9.52
2016-09-30T08:26:45.768Z,9.33
2016-09-30T08:27:45.754Z,9.23
2016-09-30T08:28:45.733Z,8.93
2016-09-30T08:29:45.712Z,9.33
2016-09-30T08:30:45.389Z,9.73
2016-09-30T08:31:45.677Z,9.63
2016-09-30T08:32:45.655Z,9.53
2016-09-30T08:33:45.335Z,9.23
2016-09-30T08:34:45.618Z,9.24
2016-09-30T08:35:45.603Z,9.24
2016-09-30T08:36:45.581Z,8.54
2016-09-30T08:37:45.566Z,8.54
2016-09-30T08:38:45.545Z,8.55
2016-09-30T08:39:45.525Z,8.54
2016-09-30T08:40:45.512Z,8.35
2016-09-30T08:41:45.186Z,8.54
2016-09-30T08:42:45.166Z,8.84
2016-09-30T08:43:45.454Z,8.35
2016-09-30T08:44:45.435Z,8.45
2016-09-30T08:45:45.417Z,8.45
2016-09-30T08:46:45.399Z,8.34
2016-09-30T08:47:45.379Z,8.54
2016-09-30T08:48:45.370Z,8.35
2016-09-30T08:49:45.344Z,8.35
2016-09-30T08:50:45.329Z,8.75
2016-09-30T08:51:45.307Z,8.35
2016-09-30T08:52:45.290Z,8.35
2016-09-30T08:53:44.968Z,7.76
2016-09-30T08:54:45.254Z,7.86
2016-09-30T08:55:45.237Z,7.86
2016-09-30T08:56:45.219Z,8.16
2016-09-30T08:57:45.202Z,8.06
2016-09-30T08:58:44.886Z,8.36
2016-09-30T08:59:45.166Z,8.17
2016-09-30T09:00:45.148Z,8.17
2016-09-30T09:01:45.132Z,8.27
2016-09-30T09:02:45.111Z,7.87
2016-09-30T09:03:45.102Z,7.87
2016-09-30T09:04:44.772Z,8.17
2016-09-30T09:05:45.058Z,7.67
2016-09-30T09:06:45.039Z,7.58
2016-09-30T09:07:45.025Z,7.48
2016-09-30T09:08:45.006Z,7.18
2016-09-30T09:09:44.991Z,7.08
2016-09-30T09:10:44.970Z,7.09
2016-09-30T09:11:44.955Z,7.09
2016-09-30T09:12:44.946Z,7.18
2016-09-30T09:13:44.617Z,7.39
2016-09-30T09:14:44.906Z,6.99
2016-09-30T09:15:44.585Z,7.18
2016-09-30T09:16:44.869Z,7.48
2016-09-30T09:17:44.851Z,7.58
2016-09-30T09:18:44.833Z,7.58
2016-09-30T09:19:44.818Z,7.58
2016-09-30T09:20:44.801Z,7.08
2016-09-30T09:21:44.787Z,6.98
2016-09-30T09:22:44.768Z,6.88
2016-09-30T09:23:44.751Z,6.59
2016-09-30T09:24:44.734Z,6.69
2016-09-30T09:25:44.716Z,6.59
2016-09-30T09:26:44.401Z,6.98
2016-09-30T09:27:44.382Z,7.47
2016-09-30T09:28:44.666Z,7.37
2016-09-30T09:29:44.653Z,7.27
2016-09-30T09:30:44.333Z,7.77
2016-09-30T09:31:44.315Z,7.27
2016-09-30T09:32:44.606Z,7.27
2016-09-30T09:33:44.585Z,7.37
2016-09-30T09:34:44.267Z,7.57
2016-09-30T09:35:44.553Z,7.87
2016-09-30T09:36:44.234Z,7.37
2016-09-30T09:37:44.518Z,7.87
2016-09-30T09:38:44.502Z,7.77
2016-09-30T09:39:44.485Z,7.77
2016-09-30T09:40:44.168Z,7.37
2016-09-30T09:41:44.453Z,6.98
2016-09-30T09:42:44.438Z,7.37
2016-09-30T09:43:44.420Z,6.77
2016-09-30T09:44:44.402Z,6.48
2016-09-30T09:45:44.390Z,6.09
2016-09-30T09:46:44.073Z,6.08
2016-09-30T09:47:44.358Z,5.88
2016-09-30T09:48:44.039Z,5.98
2016-09-30T09:49:44.023Z,5.98
2016-09-30T09:50:44.309Z,5.78
2016-09-30T09:51:43.992Z,5.88
2016-09-30T09:52:43.976Z,5.99
2016-09-30T09:53:44.262Z,5.99
2016-09-30T09:54:43.945Z,5.88
2016-09-30T09:55:44.231Z,5.69
2016-09-30T09:56:44.215Z,6.29
2016-09-30T09:57:43.897Z,5.99
2016-09-30T09:58:44.184Z,6.09
2016-09-30T09:59:44.168Z,6.29
2016-09-30T10:00:44.151Z,6.09
2016-09-30T10:01:44.137Z,6.38
2016-09-30T10:02:44.120Z,6.18
2016-09-30T10:03:43.808Z,6.39
2016-09-30T10:04:43.786Z,6.19
2016-09-30T10:05:44.073Z,6.29
2016-09-30T10:06:44.057Z,6.39
2016-09-30T10:07:44.047Z,6.59
2016-09-30T10:08:44.028Z,6.29
2016-09-30T10:09:44.013Z,6.78
2016-09-30T10:10:44.000Z,6.68
2016-09-30T10:11:43.679Z,6.88
2016-09-30T10:12:43.964Z,6.68
2016-09-30T10:13:43.947Z,6.77
2016-09-30T10:14:43.936Z,6.88
2016-09-30T10:15:43.921Z,6.58
2016-09-30T10:16:43.905Z,6.48
2016-09-30T10:17:43.585Z,6.08
2016-09-30T10:18:43.574Z,6.18
2016-09-30T10:19:43.571Z,6.18
2016-09-30T10:20:43.840Z,5.58
2016-09-30T10:21:43.523Z,5.78
2016-09-30T10:22:43.809Z,6.08
2016-09-30T10:23:43.798Z,5.78
2016-09-30T10:24:43.477Z,5.68
2016-09-30T10:25:43.764Z,5.68
2016-09-30T10:26:43.443Z,5.28
2016-09-30T10:27:43.748Z,5.68
2016-09-30T10:28:43.413Z,5.78
2016-09-30T10:29:43.420Z,5.58
2016-09-30T10:30:43.381Z,5.78
2016-09-30T10:31:43.366Z,5.88
2016-09-30T10:32:43.349Z,5.88
2016-09-30T10:33:43.638Z,5.88
2016-09-30T10:34:43.622Z,6.27
2016-09-30T10:35:43.296Z,5.87
2016-09-30T10:36:43.580Z,6.07
2016-09-30T10:37:43.266Z,5.98
2016-09-30T10:38:43.245Z,5.77
2016-09-30T10:39:43.532Z,6.17
2016-09-30T10:40:43.229Z,6.37
2016-09-30T10:41:43.571Z,6.57
2016-09-30T10:42:43.502Z,6.46
2016-09-30T10:43:43.463Z,6.37
2016-09-30T10:44:43.444Z,6.66
2016-09-30T10:45:43.124Z,6.95
2016-09-30T10:46:43.408Z,7.15
2016-09-30T10:47:43.394Z,7.24
2016-09-30T10:48:43.073Z,7.34
2016-09-30T10:49:43.360Z,7.64
2016-09-30T10:50:43.346Z,7.83
2016-09-30T10:51:43.021Z,8.42
2016-09-30T10:52:43.304Z,8.42
2016-09-30T10:53:42.986Z,8.41
2016-09-30T10:54:43.267Z,9.2
2016-09-30T10:55:43.251Z,9.09
2016-09-30T10:56:43.235Z,9
2016-09-30T10:57:43.216Z,9.3
2016-09-30T10:58:43.200Z,9.09
2016-09-30T10:59:42.878Z,9.39
2016-09-30T11:00:43.165Z,9.48
2016-09-30T11:01:43.143Z,10.07
2016-09-30T11:02:43.127Z,10.26
2016-09-30T11:03:43.104Z,10.26
2016-09-30T11:04:43.087Z,10.75
2016-09-30T11:05:43.071Z,10.65
2016-09-30T11:06:42.746Z,10.85
2016-09-30T11:07:42.728Z,10.84
2016-09-30T11:08:43.012Z,11.43
2016-09-30T11:09:42.991Z,12.11
2016-09-30T11:10:42.970Z,12.7
2016-09-30T11:11:42.954Z,12.98
2016-09-30T11:12:42.933Z,13.17
2016-09-30T11:13:42.915Z,13.26
2016-09-30T11:15:42.871Z,13.94
2016-09-30T11:16:42.852Z,14.03
2016-09-30T11:17:42.829Z,14.23
2016-09-30T11:18:42.508Z,14.51
2016-09-30T11:19:42.791Z,14.61
2016-09-30T11:20:42.464Z,14.89
2016-09-30T11:21:42.747Z,15.18
2016-09-30T11:22:42.723Z,15.76
2016-09-30T11:23:42.701Z,16.53
2016-09-30T11:24:42.936Z,16.92
2016-09-30T11:25:42.362Z,17.1
2016-09-30T11:26:42.638Z,17.88
2016-09-30T11:27:42.618Z,18.27
2016-09-30T11:28:42.599Z,18.85
2016-09-30T11:29:42.580Z,19.12
2016-09-30T11:30:42.251Z,20.09
2016-09-30T11:31:42.529Z,20.47
2016-09-30T11:32:42.505Z,21.04
2016-09-30T11:33:42.482Z,21.43
2016-09-30T11:34:42.452Z,21.81
2016-09-30T11:35:42.134Z,22.19
2016-09-30T11:36:42.413Z,22.76
2016-09-30T11:37:42.084Z,22.56
2016-09-30T11:38:42.367Z,22.85
2016-09-30T11:39:42.345Z,24.01
2016-09-30T11:40:42.326Z,24
2016-09-30T11:41:42.295Z,25.07
2016-09-30T11:42:42.270Z,24.97
2016-09-30T11:43:42.246Z,25.15
2016-09-30T11:44:41.917Z,25.15
2016-09-30T11:45:42.200Z,25.43
2016-09-30T11:46:42.171Z,25.73
2016-09-30T11:47:42.149Z,26.1
2016-09-30T11:48:42.125Z,27.25
2016-09-30T11:49:42.101Z,27.25
2016-09-30T11:50:42.073Z,27.92
2016-09-30T11:51:42.052Z,28.39
2016-09-30T11:52:42.021Z,28.96
2016-09-30T11:53:41.995Z,29.24
2016-09-30T11:54:41.971Z,29.24
2016-09-30T11:55:41.641Z,29.24
2016-09-30T11:56:41.920Z,29.71
2016-09-30T11:57:41.589Z,29.52
2016-09-30T11:58:41.870Z,29.5
2016-09-30T11:59:41.538Z,29.9
2016-09-30T12:00:41.824Z,30.66
2016-09-30T12:01:41.487Z,31.05
2016-09-30T12:02:41.760Z,31.44
2016-09-30T12:03:41.430Z,31.43
2016-09-30T12:04:41.709Z,31.62
2016-09-30T12:05:41.681Z,32.1
2016-09-30T12:06:41.652Z,32.68
2016-09-30T12:07:41.637Z,32.2
2016-09-30T12:08:41.300Z,31.91
2016-09-30T12:09:41.273Z,31.63
2016-09-30T12:10:41.246Z,31.93
2016-09-30T12:11:41.535Z,31.54
2016-09-30T12:12:41.494Z,31.34
2016-09-30T12:13:41.167Z,31.15
2016-09-30T12:14:41.138Z,31.25
2016-09-30T12:15:41.414Z,31.25
2016-09-30T12:16:41.083Z,31.15
2016-09-30T12:17:41.362Z,31.15
2016-09-30T12:18:41.333Z,31.15
2016-09-30T12:19:41.005Z,31.44
2016-09-30T12:20:41.280Z,31.62
2016-09-30T12:21:40.951Z,31.62
2016-09-30T12:22:41.223Z,31.34
2016-09-30T12:23:41.197Z,31.15
2016-09-30T12:24:41.169Z,30.86
2016-09-30T12:25:40.842Z,30.96
2016-09-30T12:26:41.115Z,31.15
2016-09-30T12:27:41.091Z,31.43
2016-09-30T12:28:41.063Z,31.44
2016-09-30T12:29:41.034Z,31.54
2016-09-30T12:30:40.705Z,31.54
2016-09-30T12:31:40.980Z,31.15
2016-09-30T12:32:40.956Z,30.96
2016-09-30T12:33:40.936Z,30.46
2016-09-30T12:34:40.901Z,30.85
2016-09-30T12:35:40.872Z,30.75
2016-09-30T12:36:40.844Z,30.65
2016-09-30T12:37:40.816Z,30.07
2016-09-30T12:38:40.791Z,30.36
2016-09-30T12:39:40.773Z,30.55
2016-09-30T12:40:40.733Z,30.85
2016-09-30T12:41:40.724Z,31.04
2016-09-30T12:42:40.685Z,31.52
2016-09-30T12:43:40.663Z,31.43
2016-09-30T12:44:40.627Z,31.62
2016-09-30T12:45:40.300Z,31.62
2016-09-30T12:46:40.570Z,31.81
2016-09-30T12:47:40.546Z,32.01
2016-09-30T12:48:40.518Z,32.1
2016-09-30T12:49:40.485Z,31.62
2016-09-30T12:50:40.159Z,31.62
2016-09-30T12:51:40.430Z,31.23
2016-09-30T12:52:40.404Z,31.13
2016-09-30T12:53:40.377Z,30.94
2016-09-30T12:54:40.049Z,31.23
2016-09-30T12:55:40.325Z,31.52
2016-09-30T12:56:40.295Z,31.81
2016-09-30T12:57:40.269Z,31.71
2016-09-30T12:58:39.942Z,31.71
2016-09-30T12:59:40.212Z,32.01